createdAt,value
2023-02-24T00:01:03.827Z,-6.05
2023-02-24T00:03:38.348Z,-6.09
2023-02-24T00:06:12.146Z,-6.05
2023-02-24T00:08:44.310Z,-6.02
2023-02-24T00:11:19.230Z,-5.97
2023-02-24T00:13:51.649Z,-5.97
2023-02-24T00:16:25.680Z,-5.98
2023-02-24T00:18:57.936Z,-6.00
2023-02-24T00:21:30.270Z,-6.06
2023-02-24T00:24:02.259Z,-6.06
2023-02-24T00:26:34.564Z,-6.02
2023-02-24T00:29:09.267Z,-6.03
2023-02-24T00:31:43.890Z,-6.04
2023-02-24T00:34:16.171Z,-6.04
2023-02-24T00:36:49.752Z,-6.04
2023-02-24T00:39:22.624Z,-6.03
2023-02-24T00:41:56.492Z,-5.89
2023-02-24T00:44:29.958Z,-5.96
2023-02-24T00:47:05.102Z,-5.99
2023-02-24T00:49:43.131Z,-5.93
2023-02-24T00:52:21.471Z,-5.92
2023-02-24T00:54:53.607Z,-6.00
2023-02-24T00:57:25.666Z,-5.97
2023-02-24T00:59:59.097Z,-5.95
2023-02-24T01:02:32.568Z,-5.92
2023-02-24T01:05:04.420Z,-5.89
2023-02-24T01:07:37.067Z,-5.75
2023-02-24T01:10:10.951Z,-5.84
2023-02-24T01:12:51.031Z,-5.81
2023-02-24T01:15:24.098Z,-5.69
2023-02-24T01:17:56.143Z,-5.72
2023-02-24T01:20:29.687Z,-5.79
2023-02-24T01:23:03.705Z,-5.79
2023-02-24T01:25:35.983Z,-5.80
2023-02-24T01:28:09.563Z,-5.77
2023-02-24T01:30:43.164Z,-5.79
2023-02-24T01:33:17.494Z,-5.78
2023-02-24T01:35:49.477Z,-5.61
2023-02-24T01:38:23.285Z,-5.76
2023-02-24T01:41:00.423Z,-5.75
2023-02-24T01:43:33.888Z,-5.82
2023-02-24T01:46:06.253Z,-5.85
2023-02-24T01:48:38.687Z,-5.84
2023-02-24T01:51:12.489Z,-5.90
2023-02-24T01:53:46.706Z,-5.91
2023-02-24T01:56:19.092Z,-5.95
2023-02-24T01:58:50.984Z,-5.87
2023-02-24T02:01:23.951Z,-5.98
2023-02-24T02:03:58.337Z,-6.04
2023-02-24T02:06:31.872Z,-6.00
2023-02-24T02:09:04.685Z,-6.05
2023-02-24T02:11:37.231Z,-6.10
2023-02-24T02:14:10.710Z,-6.16
2023-02-24T02:16:45.798Z,-6.24
2023-02-24T02:19:39.829Z,-6.29
2023-02-24T02:22:29.436Z,-6.32
2023-02-24T02:25:29.685Z,-6.32
2023-02-24T02:28:37.363Z,-6.34
2023-02-24T02:31:47.054Z,-6.37
2023-02-24T02:34:22.694Z,-6.38
2023-02-24T02:37:15.480Z,-6.35
2023-02-24T02:40:02.531Z,-6.32
2023-02-24T02:42:46.070Z,-6.30
2023-02-24T02:45:37.216Z,-6.31
2023-02-24T02:48:15.496Z,-6.27
2023-02-24T02:50:50.787Z,-6.19
2023-02-24T02:53:31.579Z,-6.11
2023-02-24T02:56:06.952Z,-6.10
2023-02-24T02:58:42.262Z,-6.02
2023-02-24T03:01:18.947Z,-6.03
2023-02-24T03:03:54.644Z,-5.95
2023-02-24T03:06:29.696Z,-5.97
2023-02-24T03:09:09.073Z,-5.97
2023-02-24T03:11:42.689Z,-6.02
2023-02-24T03:14:18.649Z,-6.03
2023-02-24T03:16:53.366Z,-6.06
2023-02-24T03:19:32.212Z,-6.01
2023-02-24T03:22:07.125Z,-6.08
2023-02-24T03:24:40.019Z,-6.09
2023-02-24T03:27:21.403Z,-6.13
2023-02-24T03:30:00.342Z,-6.11
2023-02-24T03:32:36.837Z,-6.04
2023-02-24T03:35:18.196Z,-6.08
2023-02-24T03:37:51.295Z,-5.94
2023-02-24T03:40:25.194Z,-6.01
2023-02-24T03:43:07.659Z,-5.98
2023-02-24T03:45:42.136Z,-6.02
2023-02-24T03:48:14.893Z,-6.04
2023-02-24T03:50:49.608Z,-6.02
2023-02-24T03:53:30.572Z,-5.93
2023-02-24T03:56:22.713Z,-5.88
2023-02-24T03:59:28.760Z,-5.81
2023-02-24T04:02:18.799Z,-5.82
2023-02-24T04:04:58.524Z,-5.81
2023-02-24T04:07:48.125Z,-5.83
2023-02-24T04:10:32.196Z,-5.86
2023-02-24T04:13:18.811Z,-5.88
2023-02-24T04:15:56.240Z,-5.88
2023-02-24T04:18:31.746Z,-5.89
2023-02-24T04:21:06.114Z,-5.93
2023-02-24T04:23:42.162Z,-5.96
2023-02-24T04:26:17.281Z,-5.97
2023-02-24T04:28:49.824Z,-5.93
2023-02-24T04:31:24.455Z,-5.95
2023-02-24T04:33:57.391Z,-5.95
2023-02-24T04:36:31.320Z,-5.91
2023-02-24T04:39:05.354Z,-5.86
2023-02-24T04:41:37.817Z,-5.89
2023-02-24T04:44:10.161Z,-5.89
2023-02-24T04:46:42.276Z,-5.88
2023-02-24T04:49:14.562Z,-5.84
2023-02-24T04:51:47.510Z,-5.76
2023-02-24T04:54:21.864Z,-5.67
2023-02-24T04:56:54.616Z,-5.59
2023-02-24T04:59:28.055Z,-5.57
2023-02-24T05:02:01.893Z,-5.51
2023-02-24T05:04:36.312Z,-5.45
2023-02-24T05:07:08.095Z,-5.36
2023-02-24T05:09:41.363Z,-5.38
2023-02-24T05:12:13.460Z,-5.38
2023-02-24T05:14:45.684Z,-5.34
2023-02-24T05:17:18.849Z,-5.28
2023-02-24T05:20:08.538Z,-5.26
2023-02-24T05:22:40.868Z,-5.19
2023-02-24T05:25:14.600Z,-5.08
2023-02-24T05:27:47.436Z,-5.06
2023-02-24T05:30:20.082Z,-4.99
2023-02-24T05:32:53.786Z,-4.96
2023-02-24T05:35:26.797Z,-4.95
2023-02-24T05:37:59.341Z,-4.87
2023-02-24T05:40:31.583Z,-4.74
2023-02-24T05:43:05.502Z,-4.67
2023-02-24T05:45:37.176Z,-4.69
2023-02-24T05:48:09.268Z,-4.56
2023-02-24T05:50:43.744Z,-4.52
2023-02-24T05:53:16.127Z,-4.53
2023-02-24T05:55:48.594Z,-4.56
2023-02-24T05:58:20.808Z,-4.58
2023-02-24T06:00:52.885Z,-4.62
2023-02-24T06:03:26.692Z,-4.56
2023-02-24T06:06:06.888Z,-4.55
2023-02-24T06:08:43.622Z,-4.56
2023-02-24T06:11:17.259Z,-4.55
2023-02-24T06:13:49.459Z,-4.56
2023-02-24T06:16:21.591Z,-4.58
2023-02-24T06:18:55.722Z,-4.57
2023-02-24T06:21:29.536Z,-4.53
2023-02-24T06:24:01.648Z,-4.51
2023-02-24T06:26:36.653Z,-4.46
2023-02-24T06:29:08.784Z,-4.45
2023-02-24T06:31:41.791Z,-4.44
2023-02-24T06:34:14.767Z,-4.39
2023-02-24T06:36:48.485Z,-4.43
2023-02-24T06:39:20.245Z,-4.45
2023-02-24T06:41:53.053Z,-4.32
2023-02-24T06:44:25.906Z,-4.40
2023-02-24T06:46:58.397Z,-4.40
2023-02-24T06:49:31.740Z,-4.42
2023-02-24T06:52:03.926Z,-4.46
2023-02-24T06:54:36.415Z,-4.48
2023-02-24T06:57:10.039Z,-4.41
2023-02-24T06:59:42.568Z,-4.37
2023-02-24T07:02:14.922Z,-4.35
2023-02-24T07:04:47.907Z,-4.27
2023-02-24T07:07:20.235Z,-4.30
2023-02-24T07:09:52.627Z,-4.31
2023-02-24T07:12:25.041Z,-4.31
2023-02-24T07:14:57.317Z,-4.28
2023-02-24T07:17:29.757Z,-4.21
2023-02-24T07:20:03.445Z,-4.20
2023-02-24T07:22:35.412Z,-4.18
2023-02-24T07:25:08.110Z,-4.12
2023-02-24T07:27:40.629Z,-4.08
2023-02-24T07:30:14.117Z,-4.04
2023-02-24T07:32:48.005Z,-4.06
2023-02-24T07:35:20.330Z,-4.04
2023-02-24T07:37:52.968Z,-4.01
2023-02-24T07:40:25.792Z,-3.95
2023-02-24T07:42:58.061Z,-3.90
2023-02-24T07:45:31.276Z,-3.85
2023-02-24T07:48:03.295Z,-3.76
2023-02-24T07:50:38.032Z,-3.70
2023-02-24T07:53:10.291Z,-3.70
2023-02-24T07:55:43.064Z,-3.64
2023-02-24T07:58:15.274Z,-3.68
2023-02-24T08:00:52.347Z,-3.63
2023-02-24T08:03:24.531Z,-3.61
2023-02-24T08:06:03.484Z,-3.47
2023-02-24T08:08:36.965Z,-3.47
2023-02-24T08:11:10.680Z,-3.41
2023-02-24T08:13:42.563Z,-3.36
2023-02-24T08:16:14.740Z,-3.33
2023-02-24T08:18:49.498Z,-3.30
2023-02-24T08:21:27.090Z,-3.27
2023-02-24T08:24:00.859Z,-3.20
2023-02-24T08:26:34.861Z,-3.27
2023-02-24T08:29:07.555Z,-3.26
2023-02-24T08:31:43.435Z,-3.23
2023-02-24T08:34:16.518Z,-3.12
2023-02-24T08:36:50.237Z,-2.91
2023-02-24T08:39:22.793Z,-2.85
2023-02-24T08:41:55.398Z,-2.84
2023-02-24T08:44:28.112Z,-2.83
2023-02-24T08:47:03.933Z,-2.82
2023-02-24T08:49:38.170Z,-2.75
2023-02-24T08:52:09.876Z,-2.70
2023-02-24T08:54:43.791Z,-2.52
2023-02-24T08:57:17.476Z,-2.45
2023-02-24T08:59:53.906Z,-2.45
2023-02-24T09:02:30.001Z,-2.40
2023-02-24T09:05:14.195Z,-2.36
2023-02-24T09:07:45.137Z,-2.37
2023-02-24T09:10:19.807Z,-2.28
2023-02-24T09:12:54.129Z,-2.18
2023-02-24T09:15:25.742Z,-2.17
2023-02-24T09:18:00.032Z,-2.12
2023-02-24T09:20:51.225Z,-2.19
2023-02-24T09:23:25.279Z,-2.19
2023-02-24T09:25:57.375Z,-2.24
2023-02-24T09:28:31.627Z,-2.15
2023-02-24T09:31:05.150Z,-2.21
2023-02-24T09:33:42.545Z,-2.18
2023-02-24T09:36:19.010Z,-2.19
2023-02-24T09:39:01.686Z,-2.13
2023-02-24T09:42:00.006Z,-2.08
2023-02-24T09:44:48.600Z,-1.96
2023-02-24T09:47:43.549Z,-1.84
2023-02-24T09:50:28.678Z,-1.84
2023-02-24T09:53:10.875Z,-1.70
2023-02-24T09:56:04.164Z,-1.68
2023-02-24T09:58:43.950Z,-1.60
2023-02-24T10:01:36.188Z,-1.54
2023-02-24T10:04:34.171Z,-1.49
2023-02-24T10:07:12.560Z,-1.42
2023-02-24T10:09:56.245Z,-1.34
2023-02-24T10:12:36.312Z,-1.31
2023-02-24T10:15:20.096Z,-1.29
2023-02-24T10:17:56.729Z,-1.22
2023-02-24T10:20:40.513Z,-1.22
2023-02-24T10:23:32.117Z,-1.21
2023-02-24T10:26:32.025Z,-1.16
2023-02-24T10:29:11.968Z,-1.09
2023-02-24T10:31:48.420Z,-1.04
2023-02-24T10:34:24.118Z,-1.03
2023-02-24T10:36:57.882Z,-0.95
2023-02-24T10:39:33.122Z,-0.83
2023-02-24T10:42:16.265Z,-0.74
2023-02-24T10:45:02.499Z,-0.72
2023-02-24T10:47:32.197Z,-0.69
2023-02-24T10:50:08.187Z,-0.68
2023-02-24T10:52:59.937Z,-0.65
2023-02-24T10:55:42.043Z,-0.60
2023-02-24T10:58:36.874Z,-0.58
2023-02-24T11:01:17.012Z,-0.58
2023-02-24T11:04:04.626Z,-0.47
2023-02-24T11:06:44.770Z,-0.60
2023-02-24T11:09:30.161Z,-0.63
2023-02-24T11:12:25.774Z,-0.64
2023-02-24T11:15:18.990Z,-0.65
2023-02-24T11:18:00.292Z,-0.61
2023-02-24T11:20:47.853Z,-0.58
2023-02-24T11:23:12.933Z,-0.62
2023-02-24T11:25:48.098Z,-0.60
2023-02-24T11:28:40.845Z,-0.67
2023-02-24T11:31:36.960Z,-0.65
2023-02-24T11:34:25.333Z,-0.64
2023-02-24T11:37:02.819Z,-0.66
2023-02-24T11:39:53.803Z,-0.63
2023-02-24T11:42:37.302Z,-0.64
2023-02-24T11:45:34.832Z,-0.60
2023-02-24T11:48:16.276Z,-0.62
2023-02-24T11:51:18.821Z,-0.63
2023-02-24T11:53:56.768Z,-0.63
2023-02-24T11:56:38.150Z,-0.66
2023-02-24T11:59:25.686Z,-0.67
2023-02-24T12:02:08.596Z,-0.67
2023-02-24T12:05:03.966Z,-0.68
2023-02-24T12:07:43.226Z,-0.75
2023-02-24T12:10:33.364Z,-0.81
2023-02-24T12:13:17.284Z,-0.81
2023-02-24T12:16:09.664Z,-0.81
2023-02-24T12:18:45.373Z,-0.78
2023-02-24T12:21:24.711Z,-0.78
2023-02-24T12:23:59.137Z,-0.78
2023-02-24T12:26:55.962Z,-0.78
2023-02-24T12:29:33.277Z,-0.74
2023-02-24T12:32:21.772Z,-0.75
2023-02-24T12:35:17.919Z,-0.78
2023-02-24T12:37:55.613Z,-0.84
2023-02-24T12:40:38.477Z,-0.90
2023-02-24T12:43:29.635Z,-0.95
2023-02-24T12:46:11.392Z,-0.97
2023-02-24T12:49:09.586Z,-1.03
2023-02-24T12:52:10.575Z,-1.05
2023-02-24T12:54:58.154Z,-1.09
2023-02-24T12:57:51.161Z,-1.18
2023-02-24T13:00:29.894Z,-1.27
2023-02-24T13:03:20.965Z,-1.36
2023-02-24T13:05:56.270Z,-1.43
2023-02-24T13:08:53.590Z,-1.46
2023-02-24T13:11:47.524Z,-1.45
2023-02-24T13:14:35.381Z,-1.48
2023-02-24T13:17:17.810Z,-1.43
2023-02-24T13:19:53.954Z,-1.44
2023-02-24T13:22:32.441Z,-1.42
2023-02-24T13:25:16.178Z,-1.44
2023-02-24T13:27:57.983Z,-1.44
2023-02-24T13:30:33.096Z,-1.44
2023-02-24T13:33:20.365Z,-1.43
2023-02-24T13:35:57.484Z,-1.46
2023-02-24T13:38:39.133Z,-1.47
2023-02-24T13:41:29.624Z,-1.49
2023-02-24T13:44:05.059Z,-1.48
2023-02-24T13:46:52.604Z,-1.54
2023-02-24T13:49:33.514Z,-1.53
2023-02-24T13:52:08.424Z,-1.55
2023-02-24T13:54:43.406Z,-1.61
2023-02-24T13:57:40.977Z,-1.66
2023-02-24T14:00:22.137Z,-1.69
2023-02-24T14:02:54.586Z,-1.69
2023-02-24T14:05:29.740Z,-1.67
2023-02-24T14:08:02.794Z,-1.68
2023-02-24T14:10:37.830Z,-1.69
2023-02-24T14:13:21.560Z,-1.67
2023-02-24T14:15:53.736Z,-1.67
2023-02-24T14:18:28.893Z,-1.69
2023-02-24T14:21:01.510Z,-1.69
2023-02-24T14:23:36.956Z,-1.65
2023-02-24T14:26:12.241Z,-1.63
2023-02-24T14:28:44.275Z,-1.63
2023-02-24T14:31:18.170Z,-1.68
2023-02-24T14:33:53.438Z,-1.70
2023-02-24T14:36:28.618Z,-1.72
2023-02-24T14:39:30.806Z,-1.75
2023-02-24T14:42:16.559Z,-1.76
2023-02-24T14:44:54.198Z,-1.80
2023-02-24T14:47:28.944Z,-1.81
2023-02-24T14:50:03.579Z,-1.78
2023-02-24T14:52:51.388Z,-1.82
2023-02-24T14:55:32.682Z,-1.81
2023-02-24T14:58:17.683Z,-1.80
2023-02-24T15:01:04.493Z,-1.78
2023-02-24T15:03:42.813Z,-1.80
2023-02-24T15:06:18.313Z,-1.80
2023-02-24T15:08:54.142Z,-1.78
2023-02-24T15:11:29.721Z,-1.80
2023-02-24T15:14:10.644Z,-1.75
2023-02-24T15:16:45.016Z,-1.76
2023-02-24T15:19:36.592Z,-1.77
2023-02-24T15:22:23.661Z,-1.82
2023-02-24T15:24:58.628Z,-1.82
2023-02-24T15:27:30.668Z,-1.84
2023-02-24T15:30:08.691Z,-1.83
2023-02-24T15:32:41.424Z,-1.85
2023-02-24T15:35:16.405Z,-1.84
2023-02-24T15:37:49.941Z,-1.84
2023-02-24T15:40:24.854Z,-1.86
2023-02-24T15:43:12.282Z,-1.84
2023-02-24T15:45:44.701Z,-1.80
2023-02-24T15:48:22.723Z,-1.81
2023-02-24T15:50:55.637Z,-1.79
2023-02-24T15:53:27.868Z,-1.77
2023-02-24T15:56:00.244Z,-1.79
2023-02-24T15:58:33.283Z,-1.78
2023-02-24T16:01:08.209Z,-1.74
2023-02-24T16:03:41.191Z,-1.74
2023-02-24T16:06:23.953Z,-1.71
2023-02-24T16:08:57.504Z,-1.69
2023-02-24T16:11:32.434Z,-1.70
2023-02-24T16:14:04.377Z,-1.71
2023-02-24T16:16:36.430Z,-1.72
2023-02-24T16:19:08.982Z,-1.69
2023-02-24T16:21:41.468Z,-1.70
2023-02-24T16:24:13.412Z,-1.70
2023-02-24T16:26:45.273Z,-1.65
2023-02-24T16:29:17.642Z,-1.63
2023-02-24T16:31:50.112Z,-1.62
2023-02-24T16:34:22.492Z,-1.64
2023-02-24T16:36:55.285Z,-1.63
2023-02-24T16:39:27.591Z,-1.62
2023-02-24T16:42:00.075Z,-1.63
2023-02-24T16:44:32.344Z,-1.59
2023-02-24T16:47:05.282Z,-1.55
2023-02-24T16:49:37.612Z,-1.57
2023-02-24T16:52:09.747Z,-1.56
2023-02-24T16:54:42.864Z,-1.57
2023-02-24T16:57:15.394Z,-1.54
2023-02-24T16:59:47.447Z,-1.53
2023-02-24T17:02:22.313Z,-1.55
2023-02-24T17:04:54.433Z,-1.53
2023-02-24T17:07:26.619Z,-1.48
2023-02-24T17:09:59.034Z,-1.49
2023-02-24T17:12:32.927Z,-1.45
2023-02-24T17:15:05.060Z,-1.43
2023-02-24T17:17:37.723Z,-1.39
2023-02-24T17:20:12.998Z,-1.41
2023-02-24T17:22:46.036Z,-1.38
2023-02-24T17:25:23.910Z,-1.29
2023-02-24T17:27:57.142Z,-1.28
2023-02-24T17:30:33.518Z,-1.33
2023-02-24T17:33:05.646Z,-1.36
2023-02-24T17:35:38.025Z,-1.37
2023-02-24T17:38:15.213Z,-1.38
2023-02-24T17:40:47.857Z,-1.36
2023-02-24T17:43:20.282Z,-1.36
2023-02-24T17:45:53.296Z,-1.36
2023-02-24T17:48:25.610Z,-1.36
2023-02-24T17:50:57.872Z,-1.37
2023-02-24T17:53:31.309Z,-1.34
2023-02-24T17:56:08.216Z,-1.31
2023-02-24T17:58:41.990Z,-1.27
2023-02-24T18:01:13.973Z,-1.28
2023-02-24T18:03:46.203Z,-1.25
2023-02-24T18:06:18.417Z,-1.25
2023-02-24T18:08:50.457Z,-1.23
2023-02-24T18:11:22.721Z,-1.25
2023-02-24T18:13:56.297Z,-1.23
2023-02-24T18:16:28.640Z,-1.22
2023-02-24T18:19:00.923Z,-1.23
2023-02-24T18:21:33.278Z,-1.23
2023-02-24T18:24:05.587Z,-1.24
2023-02-24T18:26:37.970Z,-1.24
2023-02-24T18:29:10.490Z,-1.23
2023-02-24T18:31:42.850Z,-1.23
2023-02-24T18:34:14.993Z,-1.21
2023-02-24T18:36:47.334Z,-1.20
2023-02-24T18:39:19.410Z,-1.20
2023-02-24T18:41:52.144Z,-1.16
2023-02-24T18:44:24.532Z,-1.13
2023-02-24T18:46:56.814Z,-1.13
2023-02-24T18:49:29.119Z,-1.14
2023-02-24T18:52:01.695Z,-1.06
2023-02-24T18:54:34.898Z,-1.07
2023-02-24T18:57:07.019Z,-1.06
2023-02-24T18:59:39.117Z,-1.05
2023-02-24T19:02:11.805Z,-1.01
2023-02-24T19:04:46.148Z,-1.01
2023-02-24T19:07:18.409Z,-1.00
2023-02-24T19:09:51.280Z,-1.00
2023-02-24T19:12:24.272Z,-0.97
2023-02-24T19:14:56.380Z,-0.97
2023-02-24T19:17:32.521Z,-0.94
2023-02-24T19:20:04.560Z,-0.94
2023-02-24T19:22:36.504Z,-0.93
2023-02-24T19:25:08.694Z,-0.91
2023-02-24T19:27:40.822Z,-0.90
2023-02-24T19:30:13.271Z,-0.89
2023-02-24T19:32:45.377Z,-0.88
2023-02-24T19:35:17.603Z,-0.89
2023-02-24T19:37:50.358Z,-0.86
2023-02-24T19:40:23.683Z,-0.86
2023-02-24T19:42:55.874Z,-0.85
2023-02-24T19:45:27.910Z,-0.82
2023-02-24T19:47:59.829Z,-0.83
2023-02-24T19:50:32.275Z,-0.82
2023-02-24T19:53:04.416Z,-0.81
2023-02-24T19:55:36.436Z,-0.78
2023-02-24T19:58:08.516Z,-0.79
2023-02-24T20:00:40.612Z,-0.80
2023-02-24T20:03:13.585Z,-0.81
2023-02-24T20:05:45.685Z,-0.80
2023-02-24T20:08:17.923Z,-0.82
2023-02-24T20:10:51.366Z,-0.81
2023-02-24T20:13:23.738Z,-0.81
2023-02-24T20:16:07.664Z,-0.78
2023-02-24T20:18:40.760Z,-0.78
2023-02-24T20:21:14.012Z,-0.78
2023-02-24T20:23:46.220Z,-0.77
2023-02-24T20:26:18.694Z,-0.75
2023-02-24T20:28:50.637Z,-0.73
2023-02-24T20:31:24.138Z,-0.75
2023-02-24T20:33:56.722Z,-0.74
2023-02-24T20:36:30.394Z,-0.72
2023-02-24T20:39:02.404Z,-0.70
2023-02-24T20:41:34.911Z,-0.68
2023-02-24T20:44:08.285Z,-0.70
2023-02-24T20:46:40.195Z,-0.54
2023-02-24T20:49:15.049Z,-0.68
2023-02-24T20:51:47.185Z,-0.69
2023-02-24T20:54:19.417Z,-0.70
2023-02-24T20:56:51.481Z,-0.69
2023-02-24T20:59:23.750Z,-0.68
2023-02-24T21:01:55.797Z,-0.66
2023-02-24T21:04:28.842Z,-0.65
2023-02-24T21:07:01.019Z,-0.65
2023-02-24T21:09:35.016Z,-0.66
2023-02-24T21:12:07.451Z,-0.65
2023-02-24T21:14:39.857Z,-0.63
2023-02-24T21:17:13.586Z,-0.64
2023-02-24T21:19:45.864Z,-0.63
2023-02-24T21:22:18.045Z,-0.60
2023-02-24T21:24:50.355Z,-0.59
2023-02-24T21:27:22.634Z,-0.61
2023-02-24T21:29:55.319Z,-0.59
2023-02-24T21:32:27.732Z,-0.59
2023-02-24T21:34:59.775Z,-0.57
2023-02-24T21:37:35.048Z,-0.57
2023-02-24T21:40:13.414Z,-0.56
2023-02-24T21:42:47.896Z,-0.52
2023-02-24T21:45:19.925Z,-0.51
2023-02-24T21:47:51.994Z,-0.50
2023-02-24T21:50:24.452Z,-0.50
2023-02-24T21:52:57.304Z,-0.50
2023-02-24T21:55:30.102Z,-0.49
2023-02-24T21:58:02.388Z,-0.43
2023-02-24T22:00:34.672Z,-0.44
2023-02-24T22:03:08.350Z,-0.45
2023-02-24T22:05:40.461Z,-0.45
2023-02-24T22:08:12.984Z,-0.43
2023-02-24T22:10:45.385Z,-0.42
2023-02-24T22:13:17.499Z,-0.41
2023-02-24T22:15:49.961Z,-0.40
2023-02-24T22:18:22.261Z,-0.35
2023-02-24T22:20:55.319Z,-0.39
2023-02-24T22:23:27.427Z,-0.39
2023-02-24T22:26:05.546Z,-0.38
2023-02-24T22:28:39.346Z,-0.35
2023-02-24T22:31:13.171Z,-0.35
2023-02-24T22:33:46.283Z,-0.32
2023-02-24T22:36:25.826Z,-0.34
2023-02-24T22:38:59.508Z,-0.31
2023-02-24T22:41:34.895Z,-0.32
2023-02-24T22:44:08.323Z,-0.31
2023-02-24T22:46:40.568Z,-0.31
2023-02-24T22:49:12.722Z,-0.30
2023-02-24T22:51:45.966Z,-0.31
2023-02-24T22:54:19.230Z,-0.31
2023-02-24T22:56:51.300Z,-0.30
2023-02-24T22:59:23.386Z,-0.29
2023-02-24T23:01:55.494Z,-0.28
2023-02-24T23:04:29.477Z,-0.29
2023-02-24T23:07:00.902Z,-0.26
2023-02-24T23:09:32.811Z,-0.10
2023-02-24T23:12:05.172Z,-0.23
2023-02-24T23:14:38.570Z,-0.25
2023-02-24T23:17:10.996Z,-0.25
2023-02-24T23:19:43.141Z,-0.24
2023-02-24T23:22:15.409Z,-0.24
2023-02-24T23:24:52.433Z,-0.24
2023-02-24T23:27:24.471Z,-0.23
2023-02-24T23:30:00.351Z,-0.23
2023-02-24T23:32:34.096Z,-0.23
2023-02-24T23:35:06.800Z,-0.20
2023-02-24T23:37:39.940Z,-0.21
2023-02-24T23:40:14.966Z,-0.19
2023-02-24T23:42:47.089Z,-0.18
2023-02-24T23:45:19.713Z,-0.17
2023-02-24T23:47:52.401Z,-0.18
2023-02-24T23:50:25.148Z,-0.16
2023-02-24T23:52:57.360Z,-0.17
2023-02-24T23:55:30.815Z,-0.16
2023-02-24T23:58:03.861Z,-0.14
